Aérodrome :
LOGIN :

S'inscrire | Disclaimer

   EN    FR    IT 

 










Légende :    VFR   VFR Marginal   IFR   IFR Intensif   IFR Très Intensif
Visi : 
Plafond : 
>= 8 km
>= 3000ft
5 à 8 km
1000 à 3000 ft
1500m à 5 km
500 à 1000 ft
800 à 1500m
200 à 500 ft
< 800m
< 200 ft
Symboles :   Orages  Brouillard  Fortes neiges  Fortes précipitations  Vent > 20 kt
SIGMETs :   Divers  Orages  Givrage  Turbulence  Onde Orograph.  Cendres Volcan.







- Altitude de l'aérodrome : 202 ft
- Code IATA : LGW
- Voir les cartes d'approche


EGKK - London Gatwick

DERNIER METAR :
  • 161520Z 20006KT 4600 BR BKN003 10/10 Q1023

METARs EXPIRÉS :
  • 161450Z 20007KT 160V230 6000 BKN004 10/10 Q1023
  • 161420Z 20007KT 150V220 6000 BKN004 11/10 Q1023
  • 161350Z 20005KT 160V230 4000 BR BKN003 11/10 Q1023
  • 161320Z 19006KT 150V240 4000 BR BKN003 11/10 Q1023
  • 161250Z 18006KT 140V210 5000 BR BKN004 11/10 Q1024
  • 161220Z 20006KT 6000 BKN004 11/10 Q1024

TAF TAF EGKK
Valide du 16 à 12h jusqu'au 17 à 18h UTC


161101Z 1612/1718 19004KT 3000 BR BKN005
TEMPO 1612/1616 BKN003
PROB30
TEMPO 1612/1615 6000 NSW BKN010
BECMG 1616/1619 1200 BKN003
PROB30 1618/1705 0600 FG BKN001
BECMG 1705/1708 9999 NSW SCT025
BECMG 1709/1712 20014KT
TEMPO 1714/1718 6000 -RADZ BKN008
Pas de NOTAMs connus pour ce terrain.



MET'MAP, la Météo Aéronautique d'un coup d'oeil ! - Copyright ORBIFLY Décembre 2007 - Disclaimer

ORBIFLY MET'MAP TEAM :

Programmation & Développement : Alexandra Zaïnal
Conception & Développement : Baudouin d'Aumeries
Co-Programmation & Développement : Marc-Olivier Méhu
Soutien technique & logistique : Manuel Goepfert

Contact : metmap@orbifly.com




SOURCES & CREDITS :

   NOAA